createdAt,value
2022-10-26T00:00:21.090Z,11.60
2022-10-26T00:05:21.080Z,14.20
2022-10-26T00:10:20.865Z,13.20
2022-10-26T00:15:20.948Z,14.10
2022-10-26T00:20:20.833Z,12.70
2022-10-26T00:25:20.727Z,12.40
2022-10-26T00:30:20.793Z,12.70
2022-10-26T00:35:24.284Z,13.00
2022-10-26T00:40:21.451Z,13.60
2022-10-26T00:45:20.400Z,12.90
2022-10-26T00:50:20.340Z,12.50
2022-10-26T00:55:20.552Z,13.10
2022-10-26T01:00:20.257Z,13.50
2022-10-26T01:05:20.173Z,12.90
2022-10-26T01:10:20.084Z,11.30
2022-10-26T01:15:20.016Z,13.50
2022-10-26T01:20:19.970Z,11.50
2022-10-26T01:25:19.929Z,13.40
2022-10-26T01:30:19.814Z,12.50
2022-10-26T01:35:19.769Z,14.00
2022-10-26T01:40:19.697Z,14.20
2022-10-26T01:45:19.610Z,14.60
2022-10-26T01:50:19.560Z,11.40
2022-10-26T01:55:19.489Z,12.30
2022-10-26T02:00:19.460Z,13.50
2022-10-26T02:05:19.386Z,16.00
2022-10-26T02:10:19.293Z,12.50
2022-10-26T02:15:19.208Z,15.40
2022-10-26T02:20:19.177Z,13.20
2022-10-26T02:25:19.083Z,14.50
2022-10-26T02:30:19.026Z,13.40
2022-10-26T02:35:19.008Z,14.50
2022-10-26T02:40:18.942Z,15.50
2022-10-26T02:45:18.822Z,13.50
2022-10-26T02:50:18.818Z,11.40
2022-10-26T02:55:18.703Z,13.50
2022-10-26T03:00:18.727Z,14.10
2022-10-26T03:05:18.844Z,13.70
2022-10-26T03:10:18.562Z,13.50
2022-10-26T03:15:18.444Z,13.90
2022-10-26T03:20:18.422Z,15.20
2022-10-26T03:25:18.299Z,14.40
2022-10-26T03:30:18.251Z,16.20
2022-10-26T03:35:18.144Z,14.40
2022-10-26T03:40:18.094Z,14.00
2022-10-26T03:45:18.054Z,16.60
2022-10-26T03:50:17.954Z,17.20
2022-10-26T03:55:17.902Z,13.60
2022-10-26T04:00:17.837Z,17.20
2022-10-26T04:05:17.803Z,15.10
2022-10-26T04:10:17.753Z,16.40
2022-10-26T04:15:17.637Z,17.80
2022-10-26T04:20:17.581Z,19.70
2022-10-26T04:25:17.541Z,18.30
2022-10-26T04:30:17.446Z,20.10
2022-10-26T04:35:17.391Z,18.30
2022-10-26T04:40:17.302Z,19.70
2022-10-26T04:45:17.234Z,18.90
2022-10-26T04:50:17.169Z,17.30
2022-10-26T04:55:17.112Z,20.40
2022-10-26T05:00:17.069Z,23.60
2022-10-26T05:05:16.972Z,20.30
2022-10-26T05:10:16.903Z,21.50
2022-10-26T05:15:16.911Z,20.80
2022-10-26T05:20:16.832Z,20.40
2022-10-26T05:25:16.805Z,24.30
2022-10-26T05:30:16.708Z,22.90
2022-10-26T05:35:16.571Z,21.70
2022-10-26T05:40:16.506Z,24.80
2022-10-26T05:45:16.454Z,24.00
2022-10-26T05:50:16.368Z,21.80
2022-10-26T05:55:16.349Z,22.30
2022-10-26T06:00:16.447Z,23.70
2022-10-26T06:05:16.224Z,23.30
2022-10-26T06:10:16.165Z,22.80
2022-10-26T06:15:16.072Z,21.20
2022-10-26T06:20:15.971Z,21.00
2022-10-26T06:25:15.920Z,20.40
2022-10-26T06:30:15.896Z,22.30
2022-10-26T06:35:15.950Z,18.40
2022-10-26T06:40:15.743Z,18.40
2022-10-26T06:45:15.737Z,18.80
2022-10-26T06:50:15.615Z,17.80
2022-10-26T06:55:15.534Z,17.10
2022-10-26T07:00:15.605Z,13.70
2022-10-26T07:05:15.518Z,13.50
2022-10-26T07:10:15.329Z,11.30
2022-10-26T07:15:15.366Z,11.00
2022-10-26T07:20:15.234Z,11.00
2022-10-26T07:25:15.131Z,11.90
2022-10-26T07:30:15.258Z,11.70
2022-10-26T07:35:15.274Z,11.40
2022-10-26T07:40:14.973Z,10.70
2022-10-26T07:45:14.870Z,11.00
2022-10-26T07:50:14.800Z,10.90
2022-10-26T07:55:14.724Z,10.30
2022-10-26T08:00:14.691Z,11.30
2022-10-26T08:05:14.652Z,12.00
2022-10-26T08:10:14.552Z,11.10
2022-10-26T08:15:14.487Z,12.70
2022-10-26T08:20:14.446Z,10.70
2022-10-26T08:25:17.533Z,12.90
2022-10-26T08:30:15.289Z,10.50
2022-10-26T08:35:14.347Z,10.10
2022-10-26T08:40:14.163Z,10.80
2022-10-26T08:45:14.126Z,11.60
2022-10-26T08:50:14.035Z,10.00
2022-10-26T08:55:13.943Z,11.10
2022-10-26T09:00:13.906Z,10.80
2022-10-26T09:05:13.831Z,9.90
2022-10-26T09:10:13.813Z,11.30
2022-10-26T09:15:13.677Z,10.40
2022-10-26T09:20:13.626Z,9.30
2022-10-26T09:25:13.535Z,9.80
2022-10-26T09:30:13.487Z,11.40
2022-10-26T09:35:13.441Z,11.30
2022-10-26T09:40:13.650Z,8.70
2022-10-26T09:45:13.282Z,10.10
2022-10-26T09:50:13.223Z,10.70
2022-10-26T09:55:13.190Z,11.30
2022-10-26T10:00:13.084Z,11.80
2022-10-26T10:05:19.448Z,10.10
2022-10-26T10:10:13.973Z,12.40
2022-10-26T10:15:12.865Z,11.40
2022-10-26T10:20:12.824Z,12.40
2022-10-26T10:25:12.757Z,10.70
2022-10-26T10:30:12.692Z,8.60
2022-10-26T10:35:12.644Z,10.00
2022-10-26T10:40:14.232Z,10.10
2022-10-26T10:45:12.505Z,8.50
2022-10-26T10:50:12.555Z,9.60
2022-10-26T10:55:12.685Z,8.20
2022-10-26T11:00:12.298Z,7.00
2022-10-26T11:05:12.274Z,9.30
2022-10-26T11:10:12.986Z,9.50
2022-10-26T11:15:12.108Z,7.10
2022-10-26T11:20:14.853Z,7.30
2022-10-26T11:25:11.968Z,5.70
2022-10-26T11:30:11.991Z,6.60
2022-10-26T11:35:11.849Z,5.50
2022-10-26T11:40:11.781Z,5.00
2022-10-26T11:45:11.733Z,4.60
2022-10-26T11:50:14.732Z,4.10
2022-10-26T11:55:12.556Z,4.00
2022-10-26T12:00:11.625Z,5.50
2022-10-26T12:05:11.472Z,6.00
2022-10-26T12:10:11.402Z,5.10
2022-10-26T12:15:11.298Z,3.70
2022-10-26T12:20:11.314Z,4.90
2022-10-26T12:25:14.791Z,5.10
2022-10-26T12:30:11.114Z,4.00
2022-10-26T12:35:11.053Z,3.70
2022-10-26T12:40:10.981Z,4.70
2022-10-26T12:45:10.931Z,2.00
2022-10-26T12:50:10.848Z,2.80
2022-10-26T12:55:10.783Z,3.20
2022-10-26T13:00:10.743Z,2.90
2022-10-26T13:05:10.638Z,3.10
2022-10-26T13:10:10.581Z,3.50
2022-10-26T13:15:10.515Z,8.80
2022-10-26T13:20:10.482Z,3.60
2022-10-26T13:25:10.397Z,4.30
2022-10-26T13:30:10.670Z,4.70
2022-10-26T13:35:10.267Z,4.50
2022-10-26T13:40:10.201Z,4.80
2022-10-26T13:45:10.125Z,5.70
2022-10-26T13:50:10.082Z,3.80
2022-10-26T13:55:09.993Z,5.80
2022-10-26T14:00:09.999Z,6.70
2022-10-26T14:05:09.897Z,7.60
2022-10-26T14:10:09.892Z,8.70
2022-10-26T14:15:09.747Z,7.40
2022-10-26T14:20:09.873Z,2.70
2022-10-26T14:25:09.621Z,3.70
2022-10-26T14:30:22.112Z,6.00
2022-10-26T14:35:10.476Z,6.50
2022-10-26T14:40:09.440Z,7.20
2022-10-26T14:45:18.973Z,5.90
2022-10-26T14:50:10.280Z,5.00
2022-10-26T14:55:09.190Z,5.40
2022-10-26T15:00:09.895Z,6.50
2022-10-26T15:05:09.083Z,6.30
2022-10-26T15:10:09.013Z,5.40
2022-10-26T15:15:09.057Z,5.60
2022-10-26T15:20:08.911Z,6.60
2022-10-26T15:25:08.823Z,6.90
2022-10-26T15:30:08.762Z,6.90
2022-10-26T15:35:08.689Z,6.50
2022-10-26T15:40:08.644Z,8.70
2022-10-26T15:45:08.585Z,8.50
2022-10-26T15:50:08.506Z,9.00
2022-10-26T15:55:08.395Z,9.20
2022-10-26T16:00:08.439Z,10.20
2022-10-26T16:05:08.295Z,9.70
2022-10-26T16:10:08.223Z,10.00
2022-10-26T16:15:08.186Z,11.50
2022-10-26T16:20:09.208Z,10.40
2022-10-26T16:25:08.027Z,11.80
2022-10-26T16:30:07.950Z,12.90
2022-10-26T16:35:07.881Z,12.10
2022-10-26T16:40:07.813Z,11.80
2022-10-26T16:45:07.758Z,12.50
2022-10-26T16:50:07.720Z,12.20
2022-10-26T16:55:07.601Z,11.50
2022-10-26T17:00:07.580Z,14.20
2022-10-26T17:05:07.785Z,13.60
2022-10-26T17:10:07.439Z,14.80
2022-10-26T17:15:07.379Z,14.20
2022-10-26T17:20:07.622Z,15.70
2022-10-26T17:25:07.291Z,13.30
2022-10-26T17:30:07.179Z,13.00
2022-10-26T17:35:07.186Z,15.40
2022-10-26T17:40:07.174Z,17.10
2022-10-26T17:45:07.052Z,14.40
2022-10-26T17:50:06.911Z,15.70
2022-10-26T17:55:06.868Z,11.10
2022-10-26T18:00:06.841Z,13.30
2022-10-26T18:05:07.664Z,14.70
2022-10-26T18:10:19.642Z,12.50
2022-10-26T18:15:07.941Z,14.50
2022-10-26T18:20:06.619Z,13.80
2022-10-26T18:25:06.471Z,17.00
2022-10-26T18:30:06.408Z,15.40
2022-10-26T18:35:07.761Z,14.00
2022-10-26T18:40:06.273Z,17.20
2022-10-26T18:45:06.206Z,16.20
2022-10-26T18:50:06.167Z,18.40
2022-10-26T18:55:06.170Z,19.50
2022-10-26T19:00:05.985Z,18.40
2022-10-26T19:05:06.097Z,18.90
2022-10-26T19:10:05.865Z,18.00
2022-10-26T19:15:05.796Z,18.90
2022-10-26T19:20:05.737Z,20.40
2022-10-26T19:25:05.655Z,18.40
2022-10-26T19:30:05.601Z,20.50
2022-10-26T19:35:05.562Z,20.80
2022-10-26T19:40:05.478Z,22.40
2022-10-26T19:45:05.401Z,22.50
2022-10-26T19:50:05.338Z,21.70
2022-10-26T19:55:05.259Z,27.30
2022-10-26T20:00:05.226Z,25.10
2022-10-26T20:05:05.148Z,23.40
2022-10-26T20:10:05.089Z,23.40
2022-10-26T20:15:05.143Z,24.80
2022-10-26T20:20:04.986Z,24.60
2022-10-26T20:25:04.872Z,26.40
2022-10-26T20:30:05.110Z,27.10
2022-10-26T20:35:04.769Z,25.10
2022-10-26T20:40:04.687Z,27.20
2022-10-26T20:45:04.607Z,28.10
2022-10-26T20:50:04.577Z,27.70
2022-10-26T20:55:04.477Z,25.10
2022-10-26T21:00:04.433Z,28.50
2022-10-26T21:05:04.360Z,27.20
2022-10-26T21:10:04.298Z,26.00
2022-10-26T21:15:04.273Z,30.50
2022-10-26T21:20:04.168Z,26.60
2022-10-26T21:25:04.151Z,26.80
2022-10-26T21:30:04.015Z,24.50
2022-10-26T21:35:03.963Z,26.30
2022-10-26T21:40:03.881Z,24.70
2022-10-26T21:45:03.822Z,24.60
2022-10-26T21:50:03.740Z,26.70
2022-10-26T21:55:03.679Z,26.10
2022-10-26T22:00:03.650Z,27.00
2022-10-26T22:05:03.543Z,26.10
2022-10-26T22:10:11.320Z,25.50
2022-10-26T22:15:04.437Z,26.30
2022-10-26T22:20:03.423Z,23.50
2022-10-26T22:25:03.271Z,24.10
2022-10-26T22:30:03.226Z,24.40
2022-10-26T22:35:17.449Z,25.30
2022-10-26T22:40:04.063Z,25.70
2022-10-26T22:45:03.077Z,26.90
2022-10-26T22:50:02.950Z,22.70
2022-10-26T22:55:02.876Z,22.50
2022-10-26T23:00:02.819Z,26.00
2022-10-26T23:05:02.763Z,25.20
2022-10-26T23:10:02.721Z,25.10
2022-10-26T23:15:02.634Z,25.20
2022-10-26T23:20:02.581Z,27.80
2022-10-26T23:25:02.474Z,26.50
2022-10-26T23:30:02.444Z,23.70
2022-10-26T23:35:02.397Z,21.40
2022-10-26T23:40:02.273Z,25.00
2022-10-26T23:45:02.230Z,24.10
2022-10-26T23:50:02.209Z,24.80
2022-10-26T23:55:02.162Z,25.70
